Latest Weather Observations for Kempsey Airport

IDN60801

Issued at 4:03 pm EST Wednesday 31 August 2016 (issued every 30 minutes, with the page automatically refreshed every 10 minutes)

About weather observations | Map of weather stations | Latest weather observations for NSW | Other Formats
Station Details ID: 059007 Name: KEMPSEY AIRPORT AWS Lat: -31.07 Lon: 152.77 Height: 13.0 m
Data from the previous 72 hours. | See also: Recent months at Kempsey Airport
Date/Time
EST
Temp
°C
App
Temp
°C
Dew
Point
°C
Rel
Hum
%
Delta-T
°C
Wind Press
QNH
hPa
Press
MSL
hPa
Rain since
9am
mm
Dir  Spd
km/h
Gust
km/h
Spd
kts
Gust
kts
31/04:00pm 19.4 18.6 12.9 66 3.7 NE 9 13 5 7 1017.9 1017.9 0.0
31/03:30pm 19.9 18.0 12.9 64 4.0 NE 15 22 8 12 1018.3 1018.3 0.0
31/03:00pm 20.3 19.6 13.3 64 4.0 NNE 9 11 5 6 1018.8 1018.8 0.0
31/02:30pm 20.7 19.3 12.1 58 4.8 N 11 13 6 7 1019.0 1019.0 0.0
31/02:00pm 21.0 20.0 12.4 58 4.8 NE 9 15 5 8 1018.8 1018.8 0.0
31/01:30pm 21.0 19.8 12.7 59 4.7 NE 11 15 6 8 1019.1 1019.1 0.0
31/01:00pm 20.8 19.6 11.7 56 5.0 NE 9 15 5 8 1019.7 1019.7 0.0
31/12:30pm 20.1 18.8 11.1 56 4.9 NE 9 13 5 7 1020.3 1020.3 0.0
31/12:00pm 19.6 17.4 10.9 57 4.7 NNE 13 17 7 9 1020.9 1020.9 0.0
31/11:30am 19.7 18.3 10.9 57 4.8 N 9 13 5 7 1021.6 1021.6 0.0
31/11:00am 19.6 17.7 10.6 56 4.9 N 11 15 6 8 1021.8 1021.8 0.0
31/10:30am 18.8 17.6 11.6 63 4.0 N 9 13 5 7 1022.1 1022.1 0.0
31/10:00am 17.7 16.8 11.5 67 3.4 N 7 11 4 6 1022.7 1022.7 0.0
31/09:30am 15.9 16.9 13.2 84 1.5 CALM 0 0 0 0 1022.9 1022.9 0.0
31/09:00am 14.1 14.9 12.7 91 0.8 CALM 0 0 0 0 1023.2 1023.2 0.0
31/08:30am 13.4 14.2 12.5 94 0.5 CALM 0 0 0 0 1023.9 1023.9 0.0
31/08:00am 12.3 12.7 11.4 94 0.5 CALM 0 0 0 0 1024.0 1024.0 0.0
31/07:30am 11.5 11.3 10.6 94 0.5 ESE 2 6 1 3 1023.9 1023.9 0.0
31/07:00am 10.8 10.8 9.9 94 0.5 CALM 0 0 0 0 1023.7 1023.7 0.0
31/06:30am 9.9 8.4 9.0 94 0.4 N 7 7 4 4 1023.4 1023.4 0.0
31/06:00am 9.9 9.7 9.0 94 0.4 CALM 0 0 0 0 1023.5 1023.5 0.0
31/05:30am 9.5 9.2 8.6 94 0.4 CALM 0 0 0 0 1023.2 1023.2 0.0
31/05:00am 10.0 9.4 9.1 94 0.4 W 2 7 1 4 1023.2 1023.2 0.0
31/04:30am 10.2 8.7 9.3 94 0.4 WNW 7 11 4 6 1023.1 1023.1 0.0
31/04:00am 9.8 8.2 8.9 94 0.4 W 7 9 4 5 1022.9 1022.9 0.0
31/03:30am 9.3 8.9 8.2 93 0.5 CALM 0 0 0 0 1022.6 1022.6 0.0
31/03:00am 9.9 9.6 8.8 93 0.5 CALM 0 0 0 0 1022.7 1022.7 0.0
31/02:30am 9.4 9.0 8.2 92 0.6 CALM 0 0 0 0 1023.0 1023.0 0.0
31/02:00am 10.2 10.0 9.1 93 0.5 CALM 0 0 0 0 1023.7 1023.7 0.0
31/01:30am 10.3 10.1 9.1 92 0.6 CALM 0 0 0 0 1023.8 1023.8 0.0
31/01:00am 10.8 10.7 9.6 92 0.6 CALM 0 0 0 0 1024.0 1024.0 0.0
31/12:30am 11.3 11.4 10.0 92 0.7 CALM 0 0 0 0 1024.2 1024.2 0.0
31/12:00am 11.8 10.7 10.5 92 0.7 WSW 7 9 4 5 1024.3 1024.3 0.0
 
Date/Time
EST
Temp
°C
App
Temp
°C
Dew
Point
°C
Rel
Hum
%
Delta-T
°C
Wind Press
QNH
hPa
Press
MSL
hPa
Rain since
9am
mm
Dir  Spd
km/h
Gust
km/h
Spd
kts
Gust
kts
30/11:30pm 11.8 11.6 10.4 91 0.7 WSW 2 6 1 3 1024.2 1024.2 0.0
30/11:00pm 12.2 12.5 10.8 91 0.7 CALM 0 0 0 0 1024.5 1024.5 0.0
30/10:30pm 12.3 12.6 10.9 91 0.7 CALM 0 0 0 0 1024.6 1024.6 0.0
30/10:00pm 12.5 12.8 10.9 90 0.8 CALM 0 0 0 0 1025.0 1025.0 0.0
30/09:30pm 13.0 13.4 11.2 89 0.9 CALM 0 0 0 0 1025.1 1025.1 0.0
30/09:00pm 13.5 14.1 11.9 90 0.9 CALM 0 6 0 3 1025.3 1025.3 0.0
30/08:30pm 13.8 13.5 11.3 85 1.3 W 4 9 2 5 1025.5 1025.5 0.0
30/08:00pm 14.9 15.5 11.9 82 1.6 CALM 0 0 0 0 1025.3 1025.3 0.0
30/07:30pm 15.4 14.8 11.6 78 2.0 NNW 6 7 3 4 1025.5 1025.5 0.0
30/07:00pm 16.4 16.9 11.6 73 2.6 CALM 0 6 0 3 1025.2 1025.2 0.0
30/06:30pm 17.2 16.2 12.3 73 2.7 NE 9 17 5 9 1024.9 1024.9 0.0
30/06:00pm 17.9 15.5 12.6 71 2.9 NE 17 22 9 12 1024.7 1024.7 0.0
30/05:30pm 18.6 16.2 12.8 69 3.3 NE 17 26 9 14 1024.6 1024.6 0.0
30/05:00pm 19.2 16.4 13.2 68 3.4 NE 20 26 11 14 1024.7 1024.7 0.0
30/04:30pm 19.5 16.8 13.0 66 3.7 NE 19 26 10 14 1024.5 1024.5 0.0
30/04:00pm 21.0 18.2 13.2 61 4.4 NE 20 26 11 14 1024.3 1024.3 0.0
30/03:30pm 21.5 19.3 13.2 59 4.8 ENE 17 22 9 12 1024.3 1024.3 0.0
30/03:00pm 21.8 19.7 13.7 60 4.7 ENE 17 24 9 13 1024.5 1024.5 0.0
30/02:30pm 21.4 19.2 13.3 60 4.6 NNE 17 22 9 12 1024.9 1024.9 0.0
30/02:00pm 21.9 19.5 12.5 55 5.3 NNE 17 22 9 12 1025.1 1025.1 0.0
30/01:30pm 21.6 19.1 12.2 55 5.3 NE 17 24 9 13 1025.3 1025.3 0.0
30/01:00pm 21.6 19.0 13.2 59 4.8 NE 19 26 10 14 1025.3 1025.3 0.0
30/12:30pm 21.4 18.7 11.7 54 5.4 NNE 17 24 9 13 1025.8 1025.8 0.0
30/12:00pm 21.2 18.3 11.0 52 5.6 N 17 24 9 13 1026.0 1026.0 0.0
30/11:30am 21.4 18.0 10.6 50 5.9 NNE 19 24 10 13 1026.7 1026.7 0.0
30/11:00am 22.5 19.9 11.9 51 5.9 N 17 22 9 12 1027.5 1027.5 0.0
30/10:30am 20.8 19.9 12.5 59 4.7 NW 9 15 5 8 1027.7 1027.7 0.0
30/10:00am 19.3 18.2 11.8 62 4.1 NW 9 15 5 8 1028.0 1028.0 0.0
30/09:30am 19.2 17.9 12.5 65 3.7 NW 11 15 6 8 1028.2 1028.2 0.0
30/09:00am 17.9 17.4 12.8 72 2.8 NW 7 11 4 6 1028.3 1028.3 0.0
30/08:30am 15.0 14.2 11.6 80 1.8 NW 7 11 4 6 1028.3 1028.3 0.0
30/08:00am 13.8 12.1 11.3 85 1.3 WNW 11 13 6 7 1028.6 1028.6 0.0
30/07:30am 12.0 10.5 10.4 90 0.8 W 9 13 5 7 1028.5 1028.5 0.0
30/07:00am 10.5 9.1 9.6 94 0.4 WNW 7 9 4 5 1028.4 1028.4 0.0
30/06:30am 10.0 8.5 9.1 94 0.4 W 7 7 4 4 1027.9 1027.9 0.0
30/06:00am 9.0 7.2 7.9 93 0.5 WSW 7 13 4 7 1027.9 1027.9 0.0
30/05:30am 8.9 8.4 7.8 93 0.5 CALM 0 0 0 0 1026.8 1026.8 0.0
30/05:00am 8.7 7.0 7.5 92 0.6 WSW 6 9 3 5 1026.4 1026.4 0.0
30/04:30am 10.4 9.5 9.3 93 0.5 W 4 6 2 3 1025.8 1025.8 0.0
30/04:00am 10.6 9.2 9.5 93 0.5 W 7 11 4 6 1025.9 1025.9 0.0
30/03:30am 10.2 8.7 9.0 92 0.6 W 7 9 4 5 1025.6 1025.6 0.0
30/03:00am 10.3 10.1 9.1 92 0.6 CALM 0 0 0 0 1025.3 1025.3 0.0
30/02:30am 10.6 10.4 8.9 89 0.8 CALM 0 0 0 0 1025.5 1025.5 0.0
30/02:00am 11.4 11.5 10.0 91 0.7 CALM 0 0 0 0 1025.7 1025.7 0.0
30/01:30am 12.3 12.5 10.7 90 0.8 CALM 0 0 0 0 1025.8 1025.8 0.0
30/01:00am 12.9 13.2 10.8 87 1.1 CALM 0 0 0 0 1026.1 1026.1 0.0
30/12:30am 13.6 14.1 11.5 87 1.1 CALM 0 0 0 0 1026.2 1026.2 0.0
30/12:00am 13.5 13.9 11.2 86 1.2 CALM 0 0 0 0 1026.2 1026.2 0.0
 
Date/Time
EST
Temp
°C
App
Temp
°C
Dew
Point
°C
Rel
Hum
%
Delta-T
°C
Wind Press
QNH
hPa
Press
MSL
hPa
Rain since
9am
mm
Dir  Spd
km/h
Gust
km/h
Spd
kts
Gust
kts
29/11:30pm 13.6 14.0 11.1 85 1.3 CALM 0 0 0 0 1026.4 1026.4 0.0
29/11:00pm 13.9 14.3 11.4 85 1.3 CALM 0 0 0 0 1026.3 1026.3 0.0
29/10:30pm 13.9 14.3 11.1 83 1.5 CALM 0 0 0 0 1026.6 1026.6 0.0
29/10:00pm 13.8 14.2 11.1 84 1.4 CALM 0 0 0 0 1026.7 1026.7 0.0
29/09:30pm 13.8 14.2 11.1 84 1.4 CALM 0 0 0 0 1027.0 1027.0 0.0
29/09:00pm 13.9 14.3 11.1 83 1.5 CALM 0 0 0 0 1027.0 1027.0 0.0
29/08:30pm 13.8 12.8 11.1 84 1.4 W 7 7 4 4 1026.8 1026.8 0.0
29/08:00pm 13.7 12.8 10.5 81 1.7 SW 6 9 3 5 1026.6 1026.6 0.0
29/07:30pm 14.6 14.9 11.0 79 1.9 CALM 0 0 0 0 1026.4 1026.4 0.0
29/07:00pm 14.9 15.3 11.1 78 2.0 CALM 0 0 0 0 1026.4 1026.4 0.0
29/06:30pm 14.8 15.1 10.8 77 2.1 CALM 0 0 0 0 1026.1 1026.1 0.0
29/06:00pm 16.4 15.8 10.5 68 3.1 NE 4 6 2 3 1025.8 1025.8 0.0
29/05:30pm 17.2 15.7 10.6 65 3.5 ENE 9 13 5 7 1025.4 1025.4 0.0
29/05:00pm 18.3 16.1 10.7 61 4.1 ENE 13 19 7 10 1025.2 1025.2 0.0
29/04:30pm 19.1 16.2 10.9 59 4.5 ENE 17 24 9 13 1025.1 1025.1 0.0
29/04:00pm 19.5 17.0 11.0 58 4.6 ENE 15 22 8 12 1025.1 1025.1 0.0
29/03:30pm 19.7 17.1 10.7 56 4.9 ENE 15 24 8 13 1024.7 1024.7 0.0
29/03:00pm 20.4 17.7 11.6 57 4.9 ENE 17 26 9 14 1024.4 1024.4 0.0
29/02:30pm 20.3 17.4 9.5 50 5.8 ENE 15 26 8 14 1024.3 1024.3 0.0
29/02:00pm 21.1 17.8 9.7 48 6.1 ENE 17 22 9 12 1024.6 1024.6 0.0
29/01:30pm 20.3 16.8 8.6 47 6.1 NNE 17 22 9 12 1024.5 1024.5 0.0
29/01:00pm 20.3 17.4 8.3 46 6.2 NE 13 17 7 9 1024.9 1024.9 0.0
29/12:30pm 20.3 17.7 9.2 49 5.9 ENE 13 19 7 10 1025.2 1025.2 0.0
29/12:00pm 19.9 17.3 7.9 46 6.2 ESE 11 19 6 10 1025.6 1025.6 0.0
29/11:30am 19.9 17.7 7.9 46 6.2 E 9 15 5 8 1025.9 1025.9 0.0
29/11:00am 19.8 18.9 9.1 50 5.6 S 4 9 2 5 1026.6 1026.6 0.0
29/10:30am 18.9 16.4 6.7 45 6.1 WNW 9 13 5 7 1027.1 1027.1 0.0
29/10:00am 18.0 15.9 8.3 53 4.9 WNW 9 13 5 7 1027.1 1027.1 0.0
29/09:30am 16.4 13.3 7.3 55 4.5 WNW 13 17 7 9 1027.0 1027.0 0.0
29/09:00am 14.1 10.8 6.2 59 3.8 WNW 13 20 7 11 1027.4 1027.4 0.0
29/08:30am 12.8 9.7 5.7 62 3.3 WNW 11 15 6 8 1027.3 1027.3 0.0
29/08:00am 11.4 8.8 6.3 71 2.4 WNW 9 13 5 7 1027.2 1027.2 0.0
29/07:30am 9.7 6.6 5.5 75 1.9 WNW 11 15 6 8 1026.8 1026.8 0.0
29/07:00am 8.6 6.2 5.2 79 1.5 W 7 15 4 8 1026.5 1026.5 0.0
29/06:30am 7.2 4.8 4.2 81 1.3 WNW 6 11 3 6 1026.0 1026.0 0.0
29/06:00am 6.7 5.0 4.2 84 1.1 WSW 2 7 1 4 1025.4 1025.4 0.0
29/05:30am 6.2 3.2 3.9 85 1.0 WSW 9 13 5 7 1024.9 1024.9 0.0
29/05:00am 7.3 4.8 5.0 85 1.0 W 7 11 4 6 1024.7 1024.7 0.0
29/04:30am 7.8 5.4 5.4 85 1.1 W 7 13 4 7 1024.5 1024.5 0.0
29/04:00am 7.2 4.4 5.3 88 0.8 WNW 9 13 5 7 1024.1 1024.1 0.0
29/03:30am 7.4 5.1 5.5 88 0.8 W 7 11 4 6 1023.8 1023.8 0.0
29/03:00am 7.7 5.0 5.8 88 0.9 W 9 13 5 7 1023.8 1023.8 0.0
29/02:30am 7.8 5.6 6.1 89 0.8 W 7 11 4 6 1023.8 1023.8 0.0
29/02:00am 7.8 5.2 6.1 89 0.8 W 9 11 5 6 1023.7 1023.7 0.0
29/01:30am 8.1 6.0 6.7 91 0.6 WNW 7 11 4 6 1023.9 1023.9 0.0
29/01:00am 6.8 4.1 5.4 91 0.6 WSW 9 11 5 6 1023.9 1023.9 0.0
29/12:30am 7.2 4.9 5.8 91 0.6 WSW 7 9 4 5 1023.9 1023.9 0.0
29/12:00am 8.0 5.2 6.8 92 0.6 W 11 11 6 6 1024.2 1024.2 0.0
 
Date/Time
EST
Temp
°C
App
Temp
°C
Dew
Point
°C
Rel
Hum
%
Delta-T
°C
Wind Press
QNH
hPa
Press
MSL
hPa
Rain since
9am
mm
Dir  Spd
km/h
Gust
km/h
Spd
kts
Gust
kts
28/11:30pm 8.0 5.9 6.6 91 0.6 W 7 11 4 6 1023.8 1023.8 0.0
28/11:00pm 8.3 6.3 6.9 91 0.6 W 7 9 4 5 1023.6 1023.6 0.0
28/10:30pm 9.0 7.0 7.1 88 0.9 W 7 11 4 6 1023.6 1023.6 0.0
28/10:00pm 9.2 6.9 7.3 88 0.9 W 9 13 5 7 1023.5 1023.5 0.0
28/09:30pm 8.9 6.5 7.0 88 0.9 W 9 11 5 6 1023.5 1023.5 0.0
28/09:00pm 9.6 7.3 7.5 87 1.0 W 9 11 5 6 1023.4 1023.4 0.0
28/08:30pm 9.6 7.2 7.0 84 1.2 WSW 9 11 5 6 1023.2 1023.2 0.0
28/08:00pm 10.0 7.8 7.9 87 1.0 WSW 9 9 5 5 1023.0 1023.0 0.0
28/07:30pm 10.0 9.1 7.6 85 1.1 WSW 2 9 1 5 1022.7 1022.7 0.0
28/07:00pm 10.7 8.1 7.8 82 1.4 W 11 11 6 6 1022.3 1022.3 0.0
28/06:30pm 12.3 11.8 7.8 74 2.2 CALM 0 0 0 0 1021.9 1021.9 0.0
28/06:00pm 14.4 12.9 7.0 61 3.6 E 4 7 2 4 1021.5 1021.5 0.0
28/05:30pm 16.2 14.0 7.7 57 4.3 E 9 11 5 6 1021.2 1021.2 0.0
28/05:00pm 17.8 14.8 7.8 52 5.1 E 13 19 7 10 1020.7 1020.7 0.0
28/04:30pm 18.8 15.8 7.9 49 5.6 E 13 20 7 11 1020.4 1020.4 0.0

Other Formats:

Comma delimited format used in spreadsheet applications
http://www.bom.gov.au/fwo/IDN60801/IDN60801.94785.axf

JavaScript Object Notation format (JSON) in row-major order
http://www.bom.gov.au/fwo/IDN60801/IDN60801.94785.json